Time;durP1;ratioP1;P1;durP2;ratioP2;P2;SDS_P1;SDS_P2;PMS_P1;PMS_P2;Temp;Humidity;BMP_temperature;BMP_pressure;BME280_temperature;BME280_humidity;BME280_pressure;Samples;Min_cycle;Max_cycle;Signal;HPM_P1;HPM_P2
2022/04/12 00:00:05;;;;;;;0.83;0.80;;;9.80;99.90;;;;;;4843883;29;20498;-59
2022/04/12 00:02:36;;;;;;;0.63;0.60;;;9.80;99.90;;;;;;4846162;29;20476;-60
2022/04/12 00:05:11;;;;;;;0.80;0.80;;;9.90;99.90;;;;;;4845128;29;20462;-59
2022/04/12 00:07:59;;;;;;;1.83;1.10;;;10.10;99.90;;;;;;4843471;29;20922;-59
2022/04/12 00:10:31;;;;;;;1.43;0.93;;;10.00;99.90;;;;;;4844947;29;20554;-59
2022/04/12 00:13:02;;;;;;;0.90;0.90;;;10.10;99.90;;;;;;4845639;29;20493;-59
2022/04/12 00:15:33;;;;;;;1.00;0.90;;;10.40;99.90;;;;;;4843712;29;20549;-59
2022/04/12 00:20:54;;;;;;;0.70;0.70;;;10.80;99.90;;;;;;4844417;29;20494;-58
2022/04/12 00:23:27;;;;;;;1.23;1.00;;;10.70;99.90;;;;;;4848040;29;20808;-59
2022/04/12 00:25:58;;;;;;;0.90;0.90;;;10.90;99.90;;;;;;4845227;29;20469;-59
2022/04/12 00:28:29;;;;;;;1.07;0.67;;;10.90;99.90;;;;;;4849125;29;20470;-59
2022/04/12 00:31:00;;;;;;;1.73;0.60;;;11.00;99.90;;;;;;4842895;29;20526;-61
2022/04/12 00:33:31;;;;;;;2.23;0.80;;;10.80;99.90;;;;;;4844000;29;20454;-60
2022/04/12 00:36:06;;;;;;;1.23;1.00;;;10.80;99.90;;;;;;4845174;29;20461;-59
2022/04/12 00:38:38;;;;;;;1.33;0.70;;;10.70;99.90;;;;;;4846524;29;20458;-59
2022/04/12 00:41:11;;;;;;;0.80;0.77;;;10.90;99.90;;;;;;4849832;29;20498;-59
2022/04/12 00:43:44;;;;;;;2.47;1.20;;;11.10;99.90;;;;;;4838868;29;20463;-59
2022/04/12 00:46:15;;;;;;;1.30;0.80;;;11.20;99.90;;;;;;4843185;29;20459;-59
2022/04/12 00:48:46;;;;;;;1.17;0.90;;;11.10;99.90;;;;;;4853217;29;20454;-60
2022/04/12 00:51:20;;;;;;;0.70;0.67;;;11.00;99.90;;;;;;4853859;29;20833;-59
2022/04/12 00:53:50;;;;;;;2.37;1.20;;;11.20;99.90;;;;;;4841455;29;20455;-59
2022/04/12 00:56:22;;;;;;;1.27;0.90;;;11.10;99.90;;;;;;4840220;29;20978;-61
2022/04/12 00:58:53;;;;;;;0.63;0.60;;;10.90;99.90;;;;;;4844786;29;20458;-59
2022/04/12 01:01:24;;;;;;;1.47;1.00;;;10.70;99.90;;;;;;4845898;29;21015;-60
2022/04/12 01:03:55;;;;;;;3.93;1.43;;;10.60;99.90;;;;;;4849051;29;20470;-63
2022/04/12 01:06:27;;;;;;;2.83;1.17;;;10.50;99.90;;;;;;4849221;29;20777;-61
2022/04/12 01:08:58;;;;;;;2.70;1.30;;;10.40;99.90;;;;;;4847469;29;20553;-59
2022/04/12 01:11:29;;;;;;;1.30;0.90;;;10.30;99.90;;;;;;4836816;29;20940;-60
2022/04/12 01:14:00;;;;;;;2.03;0.90;;;10.40;99.90;;;;;;4843439;29;20471;-65
2022/04/12 01:16:31;;;;;;;3.30;1.10;;;10.30;99.90;;;;;;4850477;29;20570;-65
2022/04/12 01:19:01;;;;;;;3.90;2.03;;;10.30;99.90;;;;;;4847480;29;20518;-65
2022/04/12 01:21:37;;;;;;;2.17;1.20;;;10.30;99.90;;;;;;4842411;29;20494;-61
2022/04/12 01:24:10;;;;;;;1.30;0.90;;;10.20;99.90;;;;;;4838616;29;20463;-60
2022/04/12 01:26:41;;;;;;;2.10;1.00;;;10.30;99.90;;;;;;4848113;29;20460;-64
2022/04/12 01:29:12;;;;;;;1.90;1.10;;;10.30;99.90;;;;;;4837547;29;20462;-65
2022/04/12 01:31:43;;;;;;;1.40;0.80;;;10.30;99.90;;;;;;4838906;29;20474;-67
2022/04/12 01:34:14;;;;;;;3.57;1.23;;;10.20;99.90;;;;;;4847597;29;20856;-65
2022/04/12 01:36:45;;;;;;;1.57;1.47;;;10.20;99.90;;;;;;4842975;29;20493;-65
2022/04/12 01:39:17;;;;;;;1.53;1.00;;;10.00;99.90;;;;;;4852458;29;20471;-59
2022/04/12 01:41:48;;;;;;;1.37;1.07;;;9.90;99.90;;;;;;4840615;29;20494;-59
2022/04/12 01:44:19;;;;;;;1.90;1.23;;;9.80;99.90;;;;;;4850528;29;20469;-59
2022/04/12 01:46:50;;;;;;;1.93;1.50;;;9.80;99.90;;;;;;4844067;29;20810;-58
2022/04/12 01:49:21;;;;;;;2.00;0.80;;;9.80;99.90;;;;;;4847474;29;20458;-60
2022/04/12 01:51:52;;;;;;;1.13;0.88;;;9.80;99.90;;;;;;4845755;29;20459;-61
2022/04/12 01:54:25;;;;;;;1.80;0.90;;;9.80;99.90;;;;;;4840128;29;20552;-59
2022/04/12 01:56:56;;;;;;;1.50;1.20;;;9.70;99.90;;;;;;4843508;29;20312;-59
2022/04/12 01:59:26;;;;;;;2.27;1.00;;;9.70;99.90;;;;;;4846412;29;20474;-59
2022/04/12 02:01:57;;;;;;;1.80;0.88;;;9.70;99.90;;;;;;4848072;29;20516;-60
2022/04/12 02:04:28;;;;;;;2.42;1.15;;;9.70;99.90;;;;;;4847789;29;20220;-57
2022/04/12 02:07:00;;;;;;;2.33;0.90;;;9.60;99.90;;;;;;4847239;29;20232;-61
2022/04/12 02:09:32;;;;;;;1.98;1.00;;;9.50;99.90;;;;;;4842221;29;20470;-60
2022/04/12 02:12:03;;;;;;;2.58;0.90;;;9.30;99.90;;;;;;4851269;29;20223;-59
2022/04/12 02:14:33;;;;;;;2.93;1.17;;;9.20;99.90;;;;;;4850638;29;20213;-60
2022/04/12 02:17:04;;;;;;;1.60;1.25;;;9.20;99.90;;;;;;4850629;29;20454;-60
2022/04/12 02:19:35;;;;;;;2.00;0.70;;;9.20;99.90;;;;;;4848376;29;20201;-61
2022/04/12 02:22:07;;;;;;;4.20;1.30;;;9.20;99.90;;;;;;4850111;29;20340;-60
2022/04/12 02:24:40;;;;;;;1.98;0.98;;;9.10;99.90;;;;;;4845439;29;20218;-60
2022/04/12 02:27:10;;;;;;;1.17;0.95;;;9.10;99.90;;;;;;4850834;29;20957;-60
2022/04/12 02:29:41;;;;;;;3.15;1.27;;;9.10;99.90;;;;;;4836809;29;20220;-60
2022/04/12 02:32:12;;;;;;;3.03;1.00;;;8.90;99.90;;;;;;4840565;29;20210;-60
2022/04/12 02:34:43;;;;;;;2.75;1.20;;;8.90;99.90;;;;;;4839287;29;20209;-60
2022/04/12 02:37:14;;;;;;;1.55;0.90;;;8.80;99.90;;;;;;4841786;29;20273;-61
2022/04/12 02:39:46;;;;;;;1.15;0.95;;;8.70;99.90;;;;;;4841930;29;20606;-61
2022/04/12 02:42:17;;;;;;;1.65;1.10;;;8.50;99.90;;;;;;4843303;29;20658;-60
2022/04/12 02:44:48;;;;;;;1.77;1.30;;;8.40;99.90;;;;;;4844238;29;20203;-61
2022/04/12 02:47:19;;;;;;;3.42;1.30;;;8.30;99.90;;;;;;4849400;29;20225;-61
2022/04/12 02:49:51;;;;;;;2.58;1.27;;;8.20;99.90;;;;;;4848471;29;20306;-60
2022/04/12 02:52:22;;;;;;;2.45;1.58;;;8.10;99.90;;;;;;4837053;29;20265;-60
2022/04/12 02:54:55;;;;;;;6.35;1.70;;;8.10;99.90;;;;;;4840688;29;20292;-61
2022/04/12 02:57:31;;;;;;;3.08;1.30;;;8.00;99.90;;;;;;4839536;29;20249;-61
2022/04/12 03:00:02;;;;;;;2.50;1.83;;;7.90;99.90;;;;;;4845488;29;20300;-61
2022/04/12 03:02:35;;;;;;;5.05;1.50;;;7.80;99.90;;;;;;4851876;29;20225;-61
2022/04/12 03:05:07;;;;;;;4.10;1.63;;;7.70;99.90;;;;;;4844071;29;20217;-60
2022/04/12 03:07:37;;;;;;;7.13;1.80;;;7.60;99.90;;;;;;4841028;29;20234;-61
2022/04/12 03:10:11;;;;;;;2.50;1.23;;;7.50;99.90;;;;;;4834883;29;20229;-61
2022/04/12 03:12:42;;;;;;;1.80;1.25;;;7.50;99.90;;;;;;4844387;29;20624;-60
2022/04/12 03:15:13;;;;;;;4.65;1.80;;;7.40;99.90;;;;;;4841214;29;20209;-61
2022/04/12 03:17:43;;;;;;;1.77;1.15;;;7.30;99.90;;;;;;4848198;29;20194;-60
2022/04/12 03:20:14;;;;;;;3.17;1.67;;;7.20;99.90;;;;;;4837096;29;20201;-61
2022/04/12 03:22:45;;;;;;;1.95;1.05;;;7.20;99.90;;;;;;4846790;29;20251;-61
2022/04/12 03:25:18;;;;;;;2.38;1.23;;;7.20;99.90;;;;;;4850100;29;20230;-60
2022/04/12 03:27:48;;;;;;;4.55;1.90;;;7.10;99.90;;;;;;4845790;29;20890;-60
2022/04/12 03:30:19;;;;;;;2.53;1.13;;;7.10;99.90;;;;;;4839172;29;20270;-60
2022/04/12 03:32:50;;;;;;;2.58;1.48;;;7.00;99.90;;;;;;4850082;29;20216;-60
2022/04/12 03:35:21;;;;;;;2.60;1.40;;;7.00;99.90;;;;;;4847756;29;20210;-59
2022/04/12 03:37:52;;;;;;;3.15;1.42;;;7.10;99.90;;;;;;4836742;29;20546;-60
2022/04/12 03:40:27;;;;;;;3.45;1.50;;;7.00;99.90;;;;;;4840250;29;20274;-60
2022/04/12 03:42:57;;;;;;;5.70;2.13;;;7.00;99.90;;;;;;4847827;29;20231;-59
2022/04/12 03:45:29;;;;;;;7.80;1.92;;;6.90;99.90;;;;;;4845416;29;20209;-60
2022/04/12 03:47:59;;;;;;;2.30;1.58;;;6.90;99.90;;;;;;4846890;29;20202;-60
2022/04/12 03:50:31;;;;;;;9.35;3.20;;;6.70;99.90;;;;;;4842083;29;20229;-60
2022/04/12 03:53:02;;;;;;;3.25;1.88;;;6.60;99.90;;;;;;4843770;29;20210;-60
2022/04/12 03:55:35;;;;;;;3.92;1.90;;;6.60;99.90;;;;;;4846491;29;20205;-59
2022/04/12 03:58:07;;;;;;;3.08;1.60;;;6.60;99.90;;;;;;4846309;29;20221;-60
2022/04/12 04:00:38;;;;;;;4.63;1.73;;;6.60;99.90;;;;;;4839463;29;20605;-61
2022/04/12 04:03:09;;;;;;;3.30;1.33;;;6.50;99.90;;;;;;4843796;29;20758;-59
2022/04/12 04:05:40;;;;;;;5.60;2.15;;;6.50;99.90;;;;;;4840279;29;20210;-60
2022/04/12 04:08:11;;;;;;;2.47;1.77;;;6.40;99.90;;;;;;4846020;29;20241;-60
2022/04/12 04:10:43;;;;;;;4.25;2.17;;;6.30;99.90;;;;;;4848517;29;20213;-59
2022/04/12 04:13:14;;;;;;;5.07;1.77;;;6.20;99.90;;;;;;4848256;29;20209;-58
2022/04/12 04:15:45;;;;;;;4.63;1.90;;;6.20;99.90;;;;;;4846819;29;20217;-58
2022/04/12 04:18:16;;;;;;;5.68;1.92;;;6.20;99.90;;;;;;4838470;29;20424;-58
2022/04/12 04:20:47;;;;;;;2.67;1.80;;;6.10;99.90;;;;;;4847055;29;20259;-57
2022/04/12 04:23:18;;;;;;;5.88;4.07;;;6.00;99.90;;;;;;4847435;29;20230;-60
2022/04/12 04:25:51;;;;;;;6.43;2.35;;;6.00;99.90;;;;;;4848090;29;20213;-60
2022/04/12 04:28:22;;;;;;;3.90;2.50;;;6.00;99.90;;;;;;4841203;29;20207;-60
2022/04/12 04:30:53;;;;;;;6.07;2.50;;;6.00;99.90;;;;;;4845905;29;20228;-60
2022/04/12 04:33:24;;;;;;;3.00;2.38;;;6.00;99.90;;;;;;4850702;29;20205;-59
2022/04/12 04:35:55;;;;;;;3.42;1.85;;;5.90;99.90;;;;;;4844918;29;20250;-59
2022/04/12 04:38:26;;;;;;;5.38;2.25;;;6.00;99.90;;;;;;4844450;29;20217;-58
2022/04/12 04:40:58;;;;;;;6.45;2.25;;;6.10;99.90;;;;;;4848433;29;20224;-59
2022/04/12 04:43:33;;;;;;;3.92;1.77;;;6.10;99.90;;;;;;4843917;29;21918;-57
2022/04/12 04:46:05;;;;;;;6.75;2.13;;;6.00;99.90;;;;;;4851507;29;20622;-57
2022/04/12 04:48:36;;;;;;;7.82;2.58;;;5.80;99.90;;;;;;4844315;29;20209;-57
2022/04/12 04:51:07;;;;;;;5.32;1.90;;;5.80;99.90;;;;;;4844441;29;20229;-58
2022/04/12 04:53:38;;;;;;;9.77;2.33;;;5.70;99.90;;;;;;4849595;29;20273;-57
2022/04/12 04:56:10;;;;;;;5.18;2.15;;;5.60;99.90;;;;;;4851726;29;20224;-58
2022/04/12 04:58:43;;;;;;;5.82;2.08;;;5.50;99.90;;;;;;4838899;29;20312;-57
2022/04/12 05:01:13;;;;;;;5.97;2.28;;;5.50;99.90;;;;;;4846632;29;20194;-57
2022/04/12 05:03:45;;;;;;;3.95;2.70;;;5.40;99.90;;;;;;4845900;29;20235;-58
2022/04/12 05:06:16;;;;;;;6.65;3.38;;;5.30;99.90;;;;;;4851366;29;20210;-57
2022/04/12 05:08:47;;;;;;;4.88;3.80;;;5.20;99.90;;;;;;4851501;29;20252;-57
2022/04/12 05:11:19;;;;;;;5.72;3.83;;;5.10;99.90;;;;;;4851400;29;20646;-57
2022/04/12 05:13:50;;;;;;;4.25;2.80;;;5.10;99.90;;;;;;4837889;29;20281;-58
2022/04/12 05:16:20;;;;;;;5.63;3.15;;;5.10;99.90;;;;;;4845965;29;20301;-56
2022/04/12 05:18:51;;;;;;;6.57;2.50;;;5.00;99.90;;;;;;4844084;29;20285;-58
2022/04/12 05:21:22;;;;;;;7.10;2.15;;;5.00;99.90;;;;;;4844644;29;20207;-55
2022/04/12 05:23:53;;;;;;;5.68;2.50;;;4.90;99.90;;;;;;4845091;29;20226;-57
2022/04/12 05:26:25;;;;;;;3.53;2.20;;;4.90;99.90;;;;;;4839912;29;20214;-57
2022/04/12 05:28:56;;;;;;;3.55;2.28;;;4.80;99.90;;;;;;4840399;29;20215;-56
2022/04/12 05:31:27;;;;;;;4.88;2.95;;;4.70;99.90;;;;;;4843294;29;20198;-57
2022/04/12 05:34:02;;;;;;;5.78;2.88;;;4.80;99.90;;;;;;4842356;29;20297;-58
2022/04/12 05:36:33;;;;;;;5.32;2.83;;;4.80;99.90;;;;;;4850938;29;20640;-57
2022/04/12 05:39:04;;;;;;;5.32;4.22;;;4.80;99.90;;;;;;4841144;29;20202;-58
2022/04/12 05:41:36;;;;;;;4.45;2.90;;;4.80;99.90;;;;;;4844740;29;20657;-57
2022/04/12 05:44:07;;;;;;;8.73;3.25;;;4.80;99.90;;;;;;4834251;29;20226;-58
2022/04/12 05:46:39;;;;;;;5.20;3.72;;;4.70;99.90;;;;;;4847278;29;20221;-58
2022/04/12 05:49:09;;;;;;;4.68;3.03;;;4.70;99.90;;;;;;4850139;29;20581;-58
2022/04/12 05:51:40;;;;;;;5.93;3.30;;;4.70;99.90;;;;;;4852014;29;20654;-57
2022/04/12 05:54:11;;;;;;;6.72;3.50;;;4.70;99.90;;;;;;4847208;29;20650;-58
2022/04/12 05:56:43;;;;;;;5.75;3.13;;;4.80;99.90;;;;;;4851092;29;20221;-57
2022/04/12 05:59:14;;;;;;;6.88;3.50;;;4.90;99.90;;;;;;4842069;29;20211;-57
2022/04/12 06:01:45;;;;;;;6.47;3.08;;;5.00;99.90;;;;;;4851835;29;20575;-57
2022/04/12 06:04:16;;;;;;;10.27;5.30;;;5.10;99.90;;;;;;4845210;29;20238;-54
2022/04/12 06:06:47;;;;;;;6.63;3.17;;;5.10;99.90;;;;;;4842805;29;20216;-57
2022/04/12 06:09:17;;;;;;;6.82;3.35;;;5.20;99.90;;;;;;4850780;29;20674;-58
2022/04/12 06:11:50;;;;;;;8.07;3.40;;;5.00;99.90;;;;;;4845011;29;20232;-57
2022/04/12 06:14:20;;;;;;;4.30;3.22;;;5.00;99.90;;;;;;4842518;29;20198;-57
2022/04/12 06:16:51;;;;;;;4.45;3.25;;;4.90;99.90;;;;;;4848563;29;20217;-57
2022/04/12 06:19:22;;;;;;;5.95;3.67;;;4.80;99.90;;;;;;4847223;29;20209;-56
2022/04/12 06:21:53;;;;;;;7.55;3.33;;;4.80;99.90;;;;;;4839499;29;20288;-58
2022/04/12 06:24:23;;;;;;;5.97;3.25;;;4.70;99.90;;;;;;4841421;29;20237;-55
2022/04/12 06:26:56;;;;;;;8.60;2.80;;;4.80;99.90;;;;;;4839547;29;20209;-55
2022/04/12 06:29:27;;;;;;;3.05;2.63;;;4.90;99.90;;;;;;4834777;29;20209;-57
2022/04/12 06:31:58;;;;;;;6.53;2.90;;;5.00;99.90;;;;;;4845218;29;20212;-57
2022/04/12 06:34:29;;;;;;;4.63;2.83;;;5.20;99.90;;;;;;4842217;29;20217;-57
2022/04/12 06:36:59;;;;;;;8.18;3.30;;;5.20;99.90;;;;;;4843976;29;20205;-58
2022/04/12 06:39:30;;;;;;;5.85;3.72;;;5.30;99.90;;;;;;4836919;29;20214;-57
2022/04/12 06:42:02;;;;;;;8.43;3.28;;;5.30;99.90;;;;;;4846976;29;20205;-55
2022/04/12 06:44:33;;;;;;;11.60;2.92;;;5.40;99.90;;;;;;4840915;29;20557;-58
2022/04/12 06:47:04;;;;;;;5.00;3.33;;;5.30;99.90;;;;;;4845772;29;20206;-59
2022/04/12 06:49:35;;;;;;;7.97;3.40;;;5.40;99.90;;;;;;4842763;29;20227;-54
2022/04/12 06:52:06;;;;;;;6.57;2.90;;;5.40;99.90;;;;;;4844379;29;20221;-58
2022/04/12 06:54:37;;;;;;;4.88;3.85;;;5.40;99.90;;;;;;4843987;29;20210;-57
2022/04/12 06:57:10;;;;;;;6.78;2.45;;;5.40;99.90;;;;;;4845835;29;20343;-58
2022/04/12 06:59:40;;;;;;;7.05;2.83;;;5.30;99.90;;;;;;4834263;29;20214;-57
2022/04/12 07:02:12;;;;;;;4.22;2.78;;;5.30;99.90;;;;;;4848206;29;20219;-58
2022/04/12 07:04:43;;;;;;;4.60;2.42;;;5.30;99.90;;;;;;4837937;29;20225;-58
2022/04/12 07:07:14;;;;;;;5.80;3.33;;;5.30;99.90;;;;;;4847836;29;20228;-54
2022/04/12 07:09:44;;;;;;;5.88;3.40;;;5.20;99.90;;;;;;4833680;29;20212;-58
2022/04/12 07:12:17;;;;;;;3.65;2.80;;;5.10;99.90;;;;;;4850355;29;20279;-58
2022/04/12 07:14:48;;;;;;;5.70;3.08;;;5.10;99.90;;;;;;4846244;29;20298;-58
2022/04/12 07:17:23;;;;;;;8.00;4.05;;;5.20;99.90;;;;;;4846183;29;20641;-58
2022/04/12 07:19:54;;;;;;;6.63;3.30;;;5.20;99.90;;;;;;4840999;29;20210;-58
2022/04/12 07:22:24;;;;;;;7.30;2.83;;;5.30;99.90;;;;;;4848338;29;20197;-57
2022/04/12 07:24:55;;;;;;;3.95;2.75;;;5.30;99.90;;;;;;4833996;29;20233;-57
2022/04/12 07:27:28;;;;;;;7.38;2.60;;;5.20;99.90;;;;;;4837817;29;20201;-57
2022/04/12 07:29:58;;;;;;;5.47;2.70;;;5.20;99.90;;;;;;4843908;29;20213;-56
2022/04/12 07:32:29;;;;;;;6.25;2.60;;;5.20;99.90;;;;;;4839335;29;20540;-58
2022/04/12 07:35:00;;;;;;;5.68;3.08;;;5.40;99.90;;;;;;4836338;29;20206;-57
2022/04/12 07:37:32;;;;;;;5.00;2.80;;;5.40;99.90;;;;;;4838276;29;20210;-59
2022/04/12 07:40:03;;;;;;;8.73;2.70;;;5.40;99.90;;;;;;4836373;29;20212;-59
2022/04/12 07:42:35;;;;;;;7.50;2.47;;;5.40;99.90;;;;;;4848488;29;20194;-59
2022/04/12 07:45:07;;;;;;;3.20;2.60;;;5.40;99.90;;;;;;4840687;29;20668;-58
2022/04/12 07:47:38;;;;;;;6.22;2.75;;;5.30;99.90;;;;;;4848993;29;20210;-59
2022/04/12 07:50:11;;;;;;;6.15;2.30;;;5.30;99.90;;;;;;4836533;29;20213;-59
2022/04/12 07:52:42;;;;;;;3.85;2.78;;;5.10;99.90;;;;;;4834429;29;20214;-59
2022/04/12 07:55:12;;;;;;;4.18;1.75;;;5.10;99.90;;;;;;4842229;29;20209;-58
2022/04/12 07:57:45;;;;;;;7.13;2.20;;;5.10;99.90;;;;;;4838250;29;20206;-58
2022/04/12 08:00:17;;;;;;;8.88;2.58;;;5.20;99.90;;;;;;4835229;29;20301;-59
2022/04/12 08:02:47;;;;;;;3.38;2.28;;;5.20;99.90;;;;;;4846944;29;20524;-58
2022/04/12 08:05:19;;;;;;;4.97;2.20;;;5.10;99.90;;;;;;4836072;29;20274;-59
2022/04/12 08:07:49;;;;;;;4.38;2.20;;;5.20;99.90;;;;;;4849585;29;20243;-58
2022/04/12 08:10:21;;;;;;;2.78;1.70;;;5.20;99.90;;;;;;4847579;29;20268;-58
2022/04/12 08:12:54;;;;;;;9.00;2.38;;;5.20;99.90;;;;;;4847474;29;20223;-58
2022/04/12 08:15:26;;;;;;;3.85;2.33;;;5.20;99.90;;;;;;4849986;29;20221;-58
2022/04/12 08:17:57;;;;;;;2.80;2.10;;;5.20;99.90;;;;;;4844198;29;20213;-57
2022/04/12 08:20:28;;;;;;;4.65;1.75;;;5.30;99.90;;;;;;4847710;29;20243;-58
2022/04/12 08:22:59;;;;;;;4.32;1.80;;;5.40;99.90;;;;;;4838330;29;20626;-57
2022/04/12 08:25:30;;;;;;;3.63;2.08;;;5.40;99.90;;;;;;4842098;29;20217;-58
2022/04/12 08:28:02;;;;;;;2.30;1.58;;;5.30;99.90;;;;;;4833014;29;20212;-58
2022/04/12 08:30:33;;;;;;;5.63;1.60;;;5.30;99.90;;;;;;4840454;29;20205;-59
2022/04/12 08:33:05;;;;;;;3.83;1.80;;;5.40;99.90;;;;;;4847060;29;20209;-59
2022/04/12 08:35:36;;;;;;;2.15;1.15;;;5.50;99.90;;;;;;4846549;29;20236;-58
2022/04/12 08:38:07;;;;;;;2.83;1.50;;;5.60;99.90;;;;;;4840079;29;20206;-57
2022/04/12 08:40:38;;;;;;;4.53;2.15;;;5.60;99.90;;;;;;4848118;29;20623;-58
2022/04/12 08:43:15;;;;;;;4.28;1.45;;;5.60;99.90;;;;;;4844410;29;20232;-58
2022/04/12 08:45:47;;;;;;;3.45;1.80;;;5.60;99.90;;;;;;4844045;29;20234;-57
2022/04/12 08:48:18;;;;;;;3.85;1.40;;;5.60;99.90;;;;;;4844214;29;20273;-57
2022/04/12 08:50:55;;;;;;;1.67;1.33;;;5.60;99.90;;;;;;4849917;29;20217;-57
2022/04/12 08:53:27;;;;;;;6.55;2.10;;;5.60;99.90;;;;;;4849425;29;20213;-57
2022/04/12 08:55:58;;;;;;;2.53;1.30;;;5.60;99.90;;;;;;4841769;29;20198;-59
2022/04/12 08:58:31;;;;;;;2.15;1.40;;;5.60;99.90;;;;;;4844278;29;20220;-56
2022/04/12 09:01:03;;;;;;;8.88;2.05;;;5.50;99.90;;;;;;4839207;29;20732;-57
2022/04/12 09:03:34;;;;;;;3.60;1.38;;;5.40;99.90;;;;;;4848092;29;20225;-58
2022/04/12 09:06:05;;;;;;;5.57;2.10;;;5.40;99.90;;;;;;4852133;29;20240;-58
2022/04/12 09:08:36;;;;;;;3.17;1.30;;;5.40;99.90;;;;;;4846410;29;20262;-58
2022/04/12 09:11:09;;;;;;;2.92;1.90;;;5.30;99.90;;;;;;4850472;29;20197;-58
2022/04/12 09:13:58;;;;;;;5.72;1.88;;;5.30;99.90;;;;;;4846606;29;20670;-58
2022/04/12 09:16:30;;;;;;;5.43;2.00;;;5.30;99.90;;;;;;4840933;29;20218;-56
2022/04/12 09:19:01;;;;;;;6.03;1.75;;;5.40;99.90;;;;;;4844994;29;20214;-58
2022/04/12 09:21:32;;;;;;;2.83;1.20;;;5.40;99.90;;;;;;4849447;29;20665;-57
2022/04/12 09:24:04;;;;;;;1.50;1.20;;;5.40;99.90;;;;;;4845010;29;20216;-57
2022/04/12 09:26:35;;;;;;;3.30;1.30;;;5.50;99.90;;;;;;4851334;29;20596;-59
2022/04/12 09:29:08;;;;;;;3.28;1.40;;;5.40;99.90;;;;;;4838584;29;20235;-56
2022/04/12 09:31:39;;;;;;;2.05;1.27;;;5.40;99.90;;;;;;4845319;29;20206;-57
2022/04/12 09:34:10;;;;;;;1.95;1.20;;;5.30;99.90;;;;;;4851340;29;20202;-56
2022/04/12 09:36:52;;;;;;;3.00;1.45;;;5.20;99.90;;;;;;4844584;29;20313;-59
2022/04/12 09:39:23;;;;;;;1.40;1.30;;;5.20;99.90;;;;;;4839496;29;20587;-58
2022/04/12 09:41:55;;;;;;;2.58;1.10;;;5.20;99.90;;;;;;4840699;29;20196;-56
2022/04/12 09:44:27;;;;;;;2.78;0.98;;;5.10;99.90;;;;;;4846964;29;20202;-58
2022/04/12 09:46:58;;;;;;;1.63;1.20;;;5.10;99.90;;;;;;4848429;29;20238;-57
2022/04/12 09:49:42;;;;;;;1.58;1.10;;;5.00;99.90;;;;;;4851624;29;20321;-56
2022/04/12 09:52:13;;;;;;;4.28;1.33;;;5.00;99.90;;;;;;4844531;29;20553;-55
2022/04/12 09:54:44;;;;;;;4.53;1.77;;;4.90;99.90;;;;;;4849862;29;20220;-57
2022/04/12 09:57:16;;;;;;;2.55;1.00;;;4.80;99.90;;;;;;4846148;29;20289;-56
2022/04/12 10:00:10;;;;;;;1.77;0.82;;;4.70;99.90;;;;;;4843488;29;20238;-56
2022/04/12 10:02:41;;;;;;;2.72;0.88;;;4.60;99.90;;;;;;4846946;29;20200;-57
2022/04/12 10:05:13;;;;;;;2.03;1.13;;;4.60;99.90;;;;;;4842637;29;20220;-54
2022/04/12 10:07:43;;;;;;;6.15;1.15;;;4.60;99.90;;;;;;4845472;29;20273;-56
2022/04/12 10:10:19;;;;;;;5.45;1.05;;;4.60;99.90;;;;;;4850162;29;20233;-58
2022/04/12 10:12:51;;;;;;;3.35;0.90;;;4.50;99.90;;;;;;4838020;29;20201;-53
2022/04/12 10:15:25;;;;;;;2.55;0.88;;;4.40;99.90;;;;;;4841515;29;20225;-56
2022/04/12 10:17:56;;;;;;;6.68;1.92;;;4.40;99.90;;;;;;4844241;29;20201;-56
2022/04/12 10:20:28;;;;;;;2.75;0.93;;;4.30;99.90;;;;;;4838936;29;20221;-57
2022/04/12 10:23:00;;;;;;;2.90;1.38;;;4.30;99.90;;;;;;4849446;29;20220;-57
2022/04/12 10:25:32;;;;;;;5.60;1.30;;;4.30;99.90;;;;;;4851827;29;20202;-56
2022/04/12 10:28:06;;;;;;;2.78;1.48;;;4.20;99.90;;;;;;4840416;29;20210;-53
2022/04/12 10:30:39;;;;;;;2.15;1.13;;;4.20;99.90;;;;;;4841565;29;20209;-57
2022/04/12 10:33:18;;;;;;;2.63;0.80;;;4.10;99.90;;;;;;4841064;29;20550;-54
2022/04/12 10:36:06;;;;;;;1.33;1.05;;;4.00;99.90;;;;;;4850084;29;20232;-54
2022/04/12 10:38:41;;;;;;;1.73;0.50;;;4.00;99.90;;;;;;4842823;29;20210;-55
2022/04/12 10:41:17;;;;;;;2.72;1.15;;;3.90;99.90;;;;;;4846413;29;20202;-57
2022/04/12 10:43:56;;;;;;;0.88;0.75;;;3.90;99.90;;;;;;4846320;29;20639;-56
2022/04/12 10:46:47;;;;;;;1.98;0.90;;;3.80;99.90;;;;;;4842610;29;20242;-56
2022/04/12 10:49:20;;;;;;;3.20;1.05;;;3.70;99.90;;;;;;4842280;29;20300;-55
2022/04/12 10:52:00;;;;;;;3.30;1.52;;;3.60;99.90;;;;;;4848429;29;20214;-57
2022/04/12 10:54:33;;;;;;;3.42;1.27;;;3.60;99.90;;;;;;4839310;29;20330;-52
2022/04/12 10:57:23;;;;;;;2.15;1.30;;;3.60;99.90;;;;;;4839795;29;20642;-54
2022/04/12 10:59:56;;;;;;;2.78;1.38;;;3.60;99.90;;;;;;4839462;29;20221;-57
2022/04/12 11:02:37;;;;;;;1.60;1.50;;;3.50;99.90;;;;;;4848909;29;20201;-57
2022/04/12 11:05:09;;;;;;;2.85;1.30;;;3.50;99.90;;;;;;4844177;29;20695;-57
2022/04/12 11:07:41;;;;;;;2.88;1.77;;;3.50;99.90;;;;;;4843042;29;20274;-56
2022/04/12 11:10:32;;;;;;;4.68;1.40;;;3.50;99.90;;;;;;4846656;29;20202;-55
2022/04/12 11:13:07;;;;;;;7.95;2.00;;;3.50;99.90;;;;;;4840547;29;20202;-56
2022/04/12 11:15:39;;;;;;;3.67;1.42;;;3.40;99.90;;;;;;4848855;29;20222;-56
2022/04/12 11:18:14;;;;;;;2.58;2.00;;;3.50;99.90;;;;;;4849665;29;20244;-57
2022/04/12 11:20:46;;;;;;;2.47;2.08;;;3.50;99.90;;;;;;4844111;29;20208;-58
2022/04/12 11:23:17;;;;;;;5.75;2.20;;;3.50;99.90;;;;;;4850437;29;20209;-58
2022/04/12 11:25:50;;;;;;;4.47;1.70;;;3.50;99.90;;;;;;4850691;29;20315;-57
2022/04/12 11:28:24;;;;;;;2.55;1.58;;;3.40;99.90;;;;;;4837135;29;20194;-59
2022/04/12 11:30:56;;;;;;;6.93;2.00;;;3.40;99.90;;;;;;4844847;29;20221;-58
2022/04/12 11:33:30;;;;;;;3.83;1.92;;;3.40;99.90;;;;;;4842531;29;20205;-55
2022/04/12 11:36:01;;;;;;;3.65;2.53;;;3.50;99.90;;;;;;4848026;29;20212;-57
2022/04/12 11:38:32;;;;;;;6.50;1.90;;;3.50;99.90;;;;;;4838563;29;20237;-56
2022/04/12 11:41:04;;;;;;;2.03;1.60;;;3.50;99.90;;;;;;4837354;29;20206;-56
2022/04/12 11:43:35;;;;;;;2.40;1.70;;;3.50;99.90;;;;;;4843910;29;20274;-57
2022/04/12 11:46:06;;;;;;;3.72;1.65;;;3.50;99.90;;;;;;4843612;29;20217;-55
2022/04/12 11:48:38;;;;;;;3.40;1.52;;;3.50;99.90;;;;;;4844563;29;20670;-56
2022/04/12 11:51:10;;;;;;;4.70;1.70;;;3.40;99.90;;;;;;4839517;29;20213;-56
2022/04/12 11:53:49;;;;;;;4.30;3.10;;;3.40;99.90;;;;;;4845450;29;20308;-56
2022/04/12 11:56:20;;;;;;;3.10;2.70;;;3.50;99.90;;;;;;4847856;29;20210;-56
2022/04/12 11:58:51;;;;;;;2.05;1.75;;;3.50;99.90;;;;;;4846763;29;20217;-55
2022/04/12 12:01:32;;;;;;;3.15;1.90;;;3.50;99.90;;;;;;4837194;29;20213;-53
2022/04/12 12:04:10;;;;;;;3.28;2.10;;;3.60;99.90;;;;;;4841084;29;20939;-54
2022/04/12 12:06:55;;;;;;;2.83;1.85;;;3.60;99.90;;;;;;4842848;29;20229;-54
2022/04/12 12:09:26;;;;;;;4.45;2.10;;;3.60;99.90;;;;;;4832697;29;20242;-53
2022/04/12 12:12:01;;;;;;;2.55;1.77;;;3.70;99.90;;;;;;4839059;29;20219;-56
2022/04/12 12:14:32;;;;;;;5.70;2.80;;;3.80;99.90;;;;;;4838919;29;20216;-53
2022/04/12 12:17:06;;;;;;;4.47;2.40;;;3.80;99.90;;;;;;4847741;29;20662;-57
2022/04/12 12:19:41;;;;;;;3.83;2.30;;;3.80;99.90;;;;;;4849440;29;20190;-54
2022/04/12 12:22:13;;;;;;;4.80;2.55;;;3.90;99.90;;;;;;4845373;29;20209;-57
2022/04/12 12:24:54;;;;;;;2.97;2.20;;;3.90;99.90;;;;;;4845846;29;20209;-55
2022/04/12 12:27:30;;;;;;;5.28;2.70;;;3.90;99.90;;;;;;4842867;29;20222;-57
2022/04/12 12:30:05;;;;;;;3.63;2.15;;;4.00;99.90;;;;;;4846171;29;20205;-54
2022/04/12 12:32:37;;;;;;;5.63;2.70;;;4.00;99.90;;;;;;4848156;29;20205;-51
2022/04/12 12:35:11;;;;;;;5.30;2.80;;;4.00;99.90;;;;;;4845316;29;20213;-54
2022/04/12 12:37:44;;;;;;;5.68;2.58;;;4.00;99.90;;;;;;4835467;29;20209;-56
2022/04/12 12:40:24;;;;;;;5.93;2.60;;;4.00;99.90;;;;;;4845691;29;20299;-53
2022/04/12 12:42:56;;;;;;;6.53;3.20;;;4.00;99.90;;;;;;4848189;29;20318;-55
2022/04/12 12:45:27;;;;;;;9.07;3.25;;;3.90;99.90;;;;;;4853166;29;20220;-54
2022/04/12 12:47:59;;;;;;;7.25;3.22;;;3.80;99.90;;;;;;4848177;29;20226;-53
2022/04/12 12:50:32;;;;;;;4.95;3.22;;;3.80;99.90;;;;;;4841886;29;20212;-58
2022/04/12 12:53:05;;;;;;;4.75;2.92;;;3.70;99.90;;;;;;4849449;29;20213;-56
2022/04/12 12:55:38;;;;;;;7.57;3.15;;;3.70;99.90;;;;;;4835758;29;20229;-54
2022/04/12 12:58:13;;;;;;;5.03;3.03;;;3.80;99.90;;;;;;4846230;29;20216;-56
2022/04/12 13:00:44;;;;;;;3.05;2.30;;;3.90;99.90;;;;;;4852373;29;20202;-57
2022/04/12 13:03:16;;;;;;;4.40;2.95;;;3.90;99.90;;;;;;4851658;29;20210;-55
2022/04/12 13:05:59;;;;;;;3.50;2.80;;;3.90;99.90;;;;;;4850842;29;20314;-57
2022/04/12 13:08:32;;;;;;;6.88;3.40;;;3.90;99.90;;;;;;4838007;29;20246;-57
2022/04/12 13:11:04;;;;;;;5.63;3.28;;;3.90;99.90;;;;;;4853022;29;20205;-53
2022/04/12 13:13:35;;;;;;;6.20;3.35;;;3.90;99.90;;;;;;4850810;29;20217;-57
2022/04/12 13:16:07;;;;;;;5.28;3.05;;;3.90;99.90;;;;;;4850283;29;20230;-53
2022/04/12 13:18:38;;;;;;;3.60;2.70;;;4.00;99.90;;;;;;4852350;29;20646;-55
2022/04/12 13:21:11;;;;;;;3.17;2.35;;;3.90;99.90;;;;;;4850838;29;20655;-56
2022/04/12 13:23:42;;;;;;;5.15;2.80;;;3.90;99.90;;;;;;4851362;29;20205;-50